sensor_id;sensor_type;location;lat;lon;timestamp;pressure;altitude;pressure_sealevel;temperature;humidity
57024;BME280;42916;54.346;18.562;2023-03-04T00:00:04;99676.48;;;2.93;94.53
57024;BME280;42916;54.346;18.562;2023-03-04T00:02:56;99674.86;;;2.95;94.70
57024;BME280;42916;54.346;18.562;2023-03-04T00:05:26;99683.84;;;2.97;94.59
57024;BME280;42916;54.346;18.562;2023-03-04T00:08:14;99669.81;;;2.99;94.36
57024;BME280;42916;54.346;18.562;2023-03-04T00:10:42;99668.38;;;3.02;94.41
57024;BME280;42916;54.346;18.562;2023-03-04T00:13:12;99667.86;;;3.04;94.40
57024;BME280;42916;54.346;18.562;2023-03-04T00:15:47;99656.34;;;3.07;94.55
57024;BME280;42916;54.346;18.562;2023-03-04T00:18:26;99658.52;;;3.07;94.31
57024;BME280;42916;54.346;18.562;2023-03-04T00:20:55;99662.90;;;3.09;94.29
57024;BME280;42916;54.346;18.562;2023-03-04T00:23:31;99661.25;;;3.08;94.36
57024;BME280;42916;54.346;18.562;2023-03-04T00:26:44;99665.85;;;3.07;94.50
57024;BME280;42916;54.346;18.562;2023-03-04T00:29:14;99666.94;;;3.09;94.13
57024;BME280;42916;54.346;18.562;2023-03-04T00:31:49;99661.36;;;3.12;94.21
57024;BME280;42916;54.346;18.562;2023-03-04T00:37:08;99658.61;;;3.15;93.97
57024;BME280;42916;54.346;18.562;2023-03-04T00:39:36;99656.97;;;3.17;94.09
57024;BME280;42916;54.346;18.562;2023-03-04T00:42:03;99648.45;;;3.21;93.99
57024;BME280;42916;54.346;18.562;2023-03-04T00:44:47;99645.39;;;3.25;93.69
57024;BME280;42916;54.346;18.562;2023-03-04T00:47:35;99645.44;;;3.26;93.63
57024;BME280;42916;54.346;18.562;2023-03-04T00:50:05;99644.12;;;3.29;93.48
57024;BME280;42916;54.346;18.562;2023-03-04T00:52:47;99634.73;;;3.30;93.37
57024;BME280;42916;54.346;18.562;2023-03-04T00:55:14;99634.84;;;3.32;93.15
57024;BME280;42916;54.346;18.562;2023-03-04T00:58:06;99633.66;;;3.33;93.13
57024;BME280;42916;54.346;18.562;2023-03-04T01:00:33;99626.27;;;3.35;93.14
57024;BME280;42916;54.346;18.562;2023-03-04T01:03:23;99623.21;;;3.37;92.92
57024;BME280;42916;54.346;18.562;2023-03-04T01:05:52;99619.27;;;3.36;92.82
57024;BME280;42916;54.346;18.562;2023-03-04T01:08:37;99614.33;;;3.34;92.51
57024;BME280;42916;54.346;18.562;2023-03-04T01:11:26;99617.34;;;3.35;92.81
57024;BME280;42916;54.346;18.562;2023-03-04T01:14:17;99612.15;;;3.36;92.67
57024;BME280;42916;54.346;18.562;2023-03-04T01:17:10;99609.04;;;3.34;92.86
57024;BME280;42916;54.346;18.562;2023-03-04T01:19:55;99603.66;;;3.31;92.64
57024;BME280;42916;54.346;18.562;2023-03-04T01:22:55;99603.64;;;3.29;92.57
57024;BME280;42916;54.346;18.562;2023-03-04T01:25:43;99606.05;;;3.29;92.83
57024;BME280;42916;54.346;18.562;2023-03-04T01:28:28;99601.30;;;3.28;93.06
57024;BME280;42916;54.346;18.562;2023-03-04T01:30:58;99599.00;;;3.27;92.96
57024;BME280;42916;54.346;18.562;2023-03-04T01:33:34;99596.52;;;3.27;93.23
57024;BME280;42916;54.346;18.562;2023-03-04T01:36:33;99592.05;;;3.26;93.24
57024;BME280;42916;54.346;18.562;2023-03-04T01:39:07;99594.81;;;3.27;93.34
57024;BME280;42916;54.346;18.562;2023-03-04T01:41:49;99590.20;;;3.27;93.68
57024;BME280;42916;54.346;18.562;2023-03-04T01:44:26;99593.59;;;3.26;93.40
57024;BME280;42916;54.346;18.562;2023-03-04T01:47:01;99591.98;;;3.26;93.44
57024;BME280;42916;54.346;18.562;2023-03-04T01:49:47;99596.19;;;3.26;93.29
57024;BME280;42916;54.346;18.562;2023-03-04T01:52:16;99592.47;;;3.30;93.28
57024;BME280;42916;54.346;18.562;2023-03-04T01:54:47;99597.67;;;3.33;93.39
57024;BME280;42916;54.346;18.562;2023-03-04T02:03:06;99582.02;;;3.41;92.98
57024;BME280;42916;54.346;18.562;2023-03-04T02:06:13;99574.30;;;3.42;92.68
57024;BME280;42916;54.346;18.562;2023-03-04T02:08:52;99570.16;;;3.42;92.82
57024;BME280;42916;54.346;18.562;2023-03-04T02:11:38;99568.92;;;3.40;92.81
57024;BME280;42916;54.346;18.562;2023-03-04T02:17:34;99572.94;;;3.33;92.58
57024;BME280;42916;54.346;18.562;2023-03-04T02:20:27;99569.42;;;3.33;92.64
57024;BME280;42916;54.346;18.562;2023-03-04T02:26:22;99569.91;;;3.28;92.54
57024;BME280;42916;54.346;18.562;2023-03-04T02:29:24;99570.08;;;3.25;92.23
57024;BME280;42916;54.346;18.562;2023-03-04T02:35:39;99567.71;;;3.13;92.04
57024;BME280;42916;54.346;18.562;2023-03-04T02:38:16;99566.68;;;3.09;92.02
57024;BME280;42916;54.346;18.562;2023-03-04T02:40:53;99563.98;;;3.04;92.06
57024;BME280;42916;54.346;18.562;2023-03-04T02:43:34;99563.60;;;2.98;92.30
57024;BME280;42916;54.346;18.562;2023-03-04T02:46:04;99559.71;;;2.92;92.43
57024;BME280;42916;54.346;18.562;2023-03-04T02:51:42;99553.81;;;2.84;92.15
57024;BME280;42916;54.346;18.562;2023-03-04T02:54:39;99554.09;;;2.82;92.51
57024;BME280;42916;54.346;18.562;2023-03-04T02:57:21;99552.96;;;2.79;92.79
57024;BME280;42916;54.346;18.562;2023-03-04T03:00:14;99549.63;;;2.75;92.70
57024;BME280;42916;54.346;18.562;2023-03-04T03:03:04;99553.83;;;2.70;92.71
57024;BME280;42916;54.346;18.562;2023-03-04T03:05:47;99555.59;;;2.66;93.30
57024;BME280;42916;54.346;18.562;2023-03-04T03:08:30;99559.40;;;2.64;93.42
57024;BME280;42916;54.346;18.562;2023-03-04T03:11:05;99562.60;;;2.63;93.20
57024;BME280;42916;54.346;18.562;2023-03-04T03:13:38;99568.07;;;2.62;93.57
57024;BME280;42916;54.346;18.562;2023-03-04T03:16:47;99561.62;;;2.62;94.25
57024;BME280;42916;54.346;18.562;2023-03-04T03:19:25;99568.34;;;2.63;94.28
57024;BME280;42916;54.346;18.562;2023-03-04T03:22:12;99562.91;;;2.65;94.20
57024;BME280;42916;54.346;18.562;2023-03-04T03:25:21;99562.08;;;2.66;93.74
57024;BME280;42916;54.346;18.562;2023-03-04T03:27:58;99554.64;;;2.66;94.09
57024;BME280;42916;54.346;18.562;2023-03-04T03:30:29;99556.81;;;2.63;94.63
57024;BME280;42916;54.346;18.562;2023-03-04T03:32:56;99560.81;;;2.61;94.71
57024;BME280;42916;54.346;18.562;2023-03-04T03:35:39;99555.08;;;2.57;94.85
57024;BME280;42916;54.346;18.562;2023-03-04T03:38:08;99554.80;;;2.55;94.67
57024;BME280;42916;54.346;18.562;2023-03-04T03:40:49;99559.70;;;2.52;94.57
57024;BME280;42916;54.346;18.562;2023-03-04T03:43:23;99557.83;;;2.51;94.82
57024;BME280;42916;54.346;18.562;2023-03-04T03:45:59;99553.77;;;2.48;95.08
57024;BME280;42916;54.346;18.562;2023-03-04T03:48:26;99558.97;;;2.44;95.03
57024;BME280;42916;54.346;18.562;2023-03-04T03:51:09;99557.71;;;2.41;95.01
57024;BME280;42916;54.346;18.562;2023-03-04T03:53:50;99551.23;;;2.38;94.72
57024;BME280;42916;54.346;18.562;2023-03-04T03:56:17;99543.73;;;2.35;95.02
57024;BME280;42916;54.346;18.562;2023-03-04T03:58:55;99545.61;;;2.34;95.24
57024;BME280;42916;54.346;18.562;2023-03-04T04:01:26;99541.98;;;2.30;94.99
57024;BME280;42916;54.346;18.562;2023-03-04T04:04:00;99539.40;;;2.27;95.09
57024;BME280;42916;54.346;18.562;2023-03-04T04:06:50;99539.77;;;2.23;95.21
57024;BME280;42916;54.346;18.562;2023-03-04T04:12:17;99540.04;;;2.17;94.88
57024;BME280;42916;54.346;18.562;2023-03-04T04:14:47;99542.17;;;2.14;94.86
57024;BME280;42916;54.346;18.562;2023-03-04T04:17:21;99544.80;;;2.12;94.95
57024;BME280;42916;54.346;18.562;2023-03-04T04:20:06;99540.13;;;2.08;95.08
57024;BME280;42916;54.346;18.562;2023-03-04T04:22:44;99540.94;;;2.05;95.26
57024;BME280;42916;54.346;18.562;2023-03-04T04:25:11;99542.28;;;2.02;95.39
57024;BME280;42916;54.346;18.562;2023-03-04T04:27:47;99545.79;;;1.99;95.19
57024;BME280;42916;54.346;18.562;2023-03-04T04:30:14;99543.31;;;1.97;95.33
57024;BME280;42916;54.346;18.562;2023-03-04T04:33:18;99545.44;;;1.95;95.56
57024;BME280;42916;54.346;18.562;2023-03-04T04:35:46;99544.05;;;1.92;96.01
57024;BME280;42916;54.346;18.562;2023-03-04T04:38:13;99547.55;;;1.89;96.05
57024;BME280;42916;54.346;18.562;2023-03-04T04:40:57;99546.05;;;1.85;96.33
57024;BME280;42916;54.346;18.562;2023-03-04T04:43:29;99542.13;;;1.83;96.41
57024;BME280;42916;54.346;18.562;2023-03-04T04:45:58;99539.61;;;1.82;96.48
57024;BME280;42916;54.346;18.562;2023-03-04T04:48:25;99538.80;;;1.80;97.02
57024;BME280;42916;54.346;18.562;2023-03-04T04:51:10;99536.76;;;1.76;97.09
57024;BME280;42916;54.346;18.562;2023-03-04T04:53:40;99542.11;;;1.74;97.54
57024;BME280;42916;54.346;18.562;2023-03-04T04:56:16;99544.27;;;1.72;97.43
57024;BME280;42916;54.346;18.562;2023-03-04T04:59:02;99548.12;;;1.69;97.66
57024;BME280;42916;54.346;18.562;2023-03-04T05:01:39;99544.00;;;1.68;98.03
57024;BME280;42916;54.346;18.562;2023-03-04T05:04:14;99544.23;;;1.69;98.31
57024;BME280;42916;54.346;18.562;2023-03-04T05:06:41;99540.12;;;1.69;97.63
57024;BME280;42916;54.346;18.562;2023-03-04T05:09:29;99540.55;;;1.68;97.83
57024;BME280;42916;54.346;18.562;2023-03-04T05:12:05;99542.48;;;1.69;98.10
57024;BME280;42916;54.346;18.562;2023-03-04T05:14:32;99534.64;;;1.68;98.19
57024;BME280;42916;54.346;18.562;2023-03-04T05:16:59;99535.46;;;1.68;98.37
57024;BME280;42916;54.346;18.562;2023-03-04T05:19:43;99538.55;;;1.70;98.30
57024;BME280;42916;54.346;18.562;2023-03-04T05:22:36;99533.27;;;1.73;98.22
57024;BME280;42916;54.346;18.562;2023-03-04T05:25:11;99534.05;;;1.77;98.22
57024;BME280;42916;54.346;18.562;2023-03-04T05:27:47;99538.42;;;1.80;98.25
57024;BME280;42916;54.346;18.562;2023-03-04T05:30:23;99543.13;;;1.82;98.22
57024;BME280;42916;54.346;18.562;2023-03-04T05:33:14;99533.61;;;1.83;98.57
57024;BME280;42916;54.346;18.562;2023-03-04T05:35:56;99535.33;;;1.85;98.65
57024;BME280;42916;54.346;18.562;2023-03-04T05:38:36;99538.61;;;1.87;98.42
57024;BME280;42916;54.346;18.562;2023-03-04T05:41:07;99537.64;;;1.91;98.44
57024;BME280;42916;54.346;18.562;2023-03-04T05:43:49;99538.90;;;1.93;98.46
57024;BME280;42916;54.346;18.562;2023-03-04T05:46:33;99543.50;;;1.96;98.41
57024;BME280;42916;54.346;18.562;2023-03-04T05:52:13;99546.64;;;2.00;98.14
57024;BME280;42916;54.346;18.562;2023-03-04T05:54:40;99552.80;;;2.02;97.73
57024;BME280;42916;54.346;18.562;2023-03-04T05:57:07;99550.92;;;2.04;97.74
57024;BME280;42916;54.346;18.562;2023-03-04T05:59:34;99553.59;;;2.06;97.48
57024;BME280;42916;54.346;18.562;2023-03-04T06:02:12;99558.77;;;2.09;97.36
57024;BME280;42916;54.346;18.562;2023-03-04T06:04:39;99555.63;;;2.10;97.41
57024;BME280;42916;54.346;18.562;2023-03-04T06:07:06;99554.45;;;2.10;97.32
57024;BME280;42916;54.346;18.562;2023-03-04T06:09:36;99556.84;;;2.13;97.38
57024;BME280;42916;54.346;18.562;2023-03-04T06:12:03;99554.26;;;2.14;97.13
57024;BME280;42916;54.346;18.562;2023-03-04T06:14:30;99554.62;;;2.16;97.14
57024;BME280;42916;54.346;18.562;2023-03-04T06:17:06;99546.85;;;2.17;96.79
57024;BME280;42916;54.346;18.562;2023-03-04T06:22:19;99546.23;;;2.17;97.10
57024;BME280;42916;54.346;18.562;2023-03-04T06:25:15;99547.42;;;2.17;96.95
57024;BME280;42916;54.346;18.562;2023-03-04T06:28:02;99553.23;;;2.19;96.86
57024;BME280;42916;54.346;18.562;2023-03-04T06:30:32;99556.63;;;2.21;96.79
57024;BME280;42916;54.346;18.562;2023-03-04T06:32:59;99552.68;;;2.24;96.57
57024;BME280;42916;54.346;18.562;2023-03-04T06:35:28;99556.48;;;2.27;96.42
57024;BME280;42916;54.346;18.562;2023-03-04T06:38:05;99555.34;;;2.27;96.44
57024;BME280;42916;54.346;18.562;2023-03-04T06:40:35;99558.85;;;2.27;95.88
57024;BME280;42916;54.346;18.562;2023-03-04T06:43:13;99555.38;;;2.28;95.60
57024;BME280;42916;54.346;18.562;2023-03-04T06:45:40;99552.48;;;2.30;95.63
57024;BME280;42916;54.346;18.562;2023-03-04T06:48:07;99556.48;;;2.32;95.12
57024;BME280;42916;54.346;18.562;2023-03-04T06:50:35;99559.52;;;2.34;94.80
57024;BME280;42916;54.346;18.562;2023-03-04T06:53:02;99558.23;;;2.35;94.55
57024;BME280;42916;54.346;18.562;2023-03-04T06:55:39;99561.27;;;2.38;93.95
57024;BME280;42916;54.346;18.562;2023-03-04T06:58:19;99560.05;;;2.39;93.72
57024;BME280;42916;54.346;18.562;2023-03-04T07:01:28;99560.16;;;2.40;93.41
57024;BME280;42916;54.346;18.562;2023-03-04T07:04:18;99565.11;;;2.45;93.18
57024;BME280;42916;54.346;18.562;2023-03-04T07:07:04;99565.33;;;2.49;92.53
57024;BME280;42916;54.346;18.562;2023-03-04T07:10:02;99568.09;;;2.50;92.36
57024;BME280;42916;54.346;18.562;2023-03-04T07:13:06;99570.63;;;2.51;91.90
57024;BME280;42916;54.346;18.562;2023-03-04T07:19:09;99576.33;;;2.54;91.63
57024;BME280;42916;54.346;18.562;2023-03-04T07:21:47;99578.98;;;2.58;91.42
57024;BME280;42916;54.346;18.562;2023-03-04T07:24:15;99576.09;;;2.61;91.25
57024;BME280;42916;54.346;18.562;2023-03-04T07:26:54;99580.33;;;2.63;91.19
57024;BME280;42916;54.346;18.562;2023-03-04T07:32:31;99586.42;;;2.69;90.78
57024;BME280;42916;54.346;18.562;2023-03-04T07:35:02;99588.27;;;2.70;91.01
57024;BME280;42916;54.346;18.562;2023-03-04T07:37:41;99591.80;;;2.75;90.73
57024;BME280;42916;54.346;18.562;2023-03-04T07:40:08;99593.80;;;2.81;90.33
57024;BME280;42916;54.346;18.562;2023-03-04T07:43:02;99587.94;;;2.89;89.84
57024;BME280;42916;54.346;18.562;2023-03-04T07:45:30;99589.67;;;2.92;89.52
57024;BME280;42916;54.346;18.562;2023-03-04T07:48:00;99596.42;;;2.94;87.49
57024;BME280;42916;54.346;18.562;2023-03-04T07:54:24;99599.58;;;2.99;87.65
57024;BME280;42916;54.346;18.562;2023-03-04T08:19:50;99601.98;;;2.93;68.54
57024;BME280;42916;54.346;18.562;2023-03-04T08:23:18;99601.90;;;2.96;69.02
57024;BME280;42916;54.346;18.562;2023-03-04T08:26:32;99602.43;;;2.99;68.26
57024;BME280;42916;54.346;18.562;2023-03-04T08:30:01;99601.11;;;3.04;68.14
57024;BME280;42916;54.346;18.562;2023-03-04T08:33:21;99604.70;;;3.07;63.93
57024;BME280;42916;54.346;18.562;2023-03-04T08:43:35;99614.40;;;3.08;62.45
57024;BME280;42916;54.346;18.562;2023-03-04T09:08:25;99628.73;;;3.06;53.21
57024;BME280;42916;54.346;18.562;2023-03-04T09:22:12;99650.39;;;2.91;47.25
57024;BME280;42916;54.346;18.562;2023-03-04T09:28:59;99650.40;;;2.82;46.72
57024;BME280;42916;54.346;18.562;2023-03-04T09:32:14;99650.28;;;2.78;46.73
57024;BME280;42916;54.346;18.562;2023-03-04T09:35:05;99647.11;;;2.77;47.08
57024;BME280;42916;54.346;18.562;2023-03-04T09:37:46;99648.19;;;2.78;46.88
57024;BME280;42916;54.346;18.562;2023-03-04T09:40:17;99652.49;;;2.79;47.62
57024;BME280;42916;54.346;18.562;2023-03-04T09:42:54;99652.13;;;2.84;47.01
57024;BME280;42916;54.346;18.562;2023-03-04T09:46:14;99650.55;;;2.80;45.53
57024;BME280;42916;54.346;18.562;2023-03-04T09:48:22;99650.60;;;2.75;45.91
57024;BME280;42916;54.346;18.562;2023-03-04T09:57:22;99650.14;;;2.79;46.46
57024;BME280;42916;54.346;18.562;2023-03-04T10:00:19;99651.41;;;2.80;46.26
57024;BME280;42916;54.346;18.562;2023-03-04T10:03:36;99659.17;;;2.90;47.82
57024;BME280;42916;54.346;18.562;2023-03-04T10:06:15;99667.25;;;3.04;46.68
57024;BME280;42916;54.346;18.562;2023-03-04T10:09:03;99666.77;;;3.07;46.38
57024;BME280;42916;54.346;18.562;2023-03-04T10:14:49;99666.51;;;3.14;44.78
57024;BME280;42916;54.346;18.562;2023-03-04T10:17:35;99671.75;;;3.05;44.03
57024;BME280;42916;54.346;18.562;2023-03-04T10:20:21;99678.73;;;2.97;44.69
57024;BME280;42916;54.346;18.562;2023-03-04T10:22:57;99680.21;;;2.93;44.37
57024;BME280;42916;54.346;18.562;2023-03-04T10:25:32;99686.23;;;2.91;42.66
57024;BME280;42916;54.346;18.562;2023-03-04T10:28:14;99673.53;;;2.89;41.00
57024;BME280;42916;54.346;18.562;2023-03-04T10:37:04;99661.05;;;3.12;43.10
57024;BME280;42916;54.346;18.562;2023-03-04T10:44:57;99662.70;;;3.11;43.73
57024;BME280;42916;54.346;18.562;2023-03-04T10:47:27;99662.90;;;3.11;44.03
57024;BME280;42916;54.346;18.562;2023-03-04T10:49:59;99661.92;;;3.03;42.98
57024;BME280;42916;54.346;18.562;2023-03-04T10:52:45;99660.33;;;3.06;44.25
57024;BME280;42916;54.346;18.562;2023-03-04T10:55:40;99659.25;;;3.09;43.56
57024;BME280;42916;54.346;18.562;2023-03-04T10:58:15;99659.55;;;3.03;41.21
57024;BME280;42916;54.346;18.562;2023-03-04T11:01:01;99663.22;;;2.94;40.72
57024;BME280;42916;54.346;18.562;2023-03-04T11:03:46;99664.39;;;2.97;42.04
57024;BME280;42916;54.346;18.562;2023-03-04T11:06:20;99673.71;;;2.97;40.85
57024;BME280;42916;54.346;18.562;2023-03-04T11:08:56;99675.02;;;3.00;41.00
57024;BME280;42916;54.346;18.562;2023-03-04T11:11:29;99673.20;;;2.99;39.14
57024;BME280;42916;54.346;18.562;2023-03-04T11:14:03;99677.39;;;2.90;38.91
57024;BME280;42916;54.346;18.562;2023-03-04T11:16:34;99687.67;;;2.90;38.66
57024;BME280;42916;54.346;18.562;2023-03-04T11:19:19;99680.20;;;2.85;38.53
57024;BME280;42916;54.346;18.562;2023-03-04T11:21:49;99684.46;;;2.82;39.49
57024;BME280;42916;54.346;18.562;2023-03-04T11:24:27;99685.60;;;2.87;38.20
57024;BME280;42916;54.346;18.562;2023-03-04T11:29:59;99686.94;;;2.75;37.80
57024;BME280;42916;54.346;18.562;2023-03-04T11:32:43;99671.79;;;2.72;38.26
57024;BME280;42916;54.346;18.562;2023-03-04T11:35:33;99683.77;;;2.77;38.98
57024;BME280;42916;54.346;18.562;2023-03-04T11:38:28;99693.64;;;2.94;39.63
57024;BME280;42916;54.346;18.562;2023-03-04T11:44:18;99692.05;;;3.15;38.30
57024;BME280;42916;54.346;18.562;2023-03-04T11:58:27;99716.02;;;3.30;33.90
57024;BME280;42916;54.346;18.562;2023-03-04T12:01:17;99717.06;;;3.19;33.36
57024;BME280;42916;54.346;18.562;2023-03-04T12:04:03;99715.17;;;3.14;32.28
57024;BME280;42916;54.346;18.562;2023-03-04T12:09:07;99720.85;;;3.13;32.89
57024;BME280;42916;54.346;18.562;2023-03-04T12:31:32;99738.34;;;3.69;32.68
57024;BME280;42916;54.346;18.562;2023-03-04T12:40:02;99741.16;;;2.90;32.61
57024;BME280;42916;54.346;18.562;2023-03-04T12:45:28;99741.84;;;2.43;33.48
57024;BME280;42916;54.346;18.562;2023-03-04T12:53:46;99739.05;;;2.41;34.49
57024;BME280;42916;54.346;18.562;2023-03-04T12:56:24;99747.68;;;2.42;35.29
57024;BME280;42916;54.346;18.562;2023-03-04T12:58:52;99750.69;;;2.42;34.99
57024;BME280;42916;54.346;18.562;2023-03-04T13:01:26;99746.05;;;2.40;35.05
57024;BME280;42916;54.346;18.562;2023-03-04T13:04:08;99751.23;;;2.29;34.85
57024;BME280;42916;54.346;18.562;2023-03-04T13:09:43;99772.13;;;2.22;35.35
57024;BME280;42916;54.346;18.562;2023-03-04T13:12:18;99766.77;;;2.09;35.72
57024;BME280;42916;54.346;18.562;2023-03-04T13:18:44;99774.10;;;2.12;34.89
57024;BME280;42916;54.346;18.562;2023-03-04T13:39:26;99783.09;;;3.20;32.56
57024;BME280;42916;54.346;18.562;2023-03-04T13:42:42;99787.98;;;3.20;31.67
57024;BME280;42916;54.346;18.562;2023-03-04T13:49:29;99778.76;;;3.23;31.26
57024;BME280;42916;54.346;18.562;2023-03-04T13:59:13;99790.48;;;4.01;29.43
57024;BME280;42916;54.346;18.562;2023-03-04T14:05:17;99796.09;;;3.18;31.95
57024;BME280;42916;54.346;18.562;2023-03-04T14:08:11;99803.27;;;2.87;32.06
57024;BME280;42916;54.346;18.562;2023-03-04T14:14:54;99812.48;;;2.20;33.41
57024;BME280;42916;54.346;18.562;2023-03-04T14:32:25;99836.19;;;1.99;37.06
57024;BME280;42916;54.346;18.562;2023-03-04T14:39:18;99837.77;;;2.38;39.70
57024;BME280;42916;54.346;18.562;2023-03-04T14:45:21;99838.02;;;3.20;38.88
57024;BME280;42916;54.346;18.562;2023-03-04T14:48:38;99845.77;;;2.61;37.57
57024;BME280;42916;54.346;18.562;2023-03-04T14:51:37;99859.61;;;2.03;37.38
57024;BME280;42916;54.346;18.562;2023-03-04T15:08:45;99844.45;;;0.26;38.18
57024;BME280;42916;54.346;18.562;2023-03-04T15:18:23;99840.70;;;0.13;38.37
57024;BME280;42916;54.346;18.562;2023-03-04T15:20:53;99833.98;;;0.10;38.55
57024;BME280;42916;54.346;18.562;2023-03-04T15:23:21;99839.78;;;0.09;38.68
57024;BME280;42916;54.346;18.562;2023-03-04T15:26:08;99843.83;;;0.09;37.79
57024;BME280;42916;54.346;18.562;2023-03-04T15:28:38;99840.59;;;0.06;37.54
57024;BME280;42916;54.346;18.562;2023-03-04T15:31:06;99841.83;;;0.05;37.73
57024;BME280;42916;54.346;18.562;2023-03-04T15:33:39;99838.82;;;0.02;38.05
57024;BME280;42916;54.346;18.562;2023-03-04T15:36:12;99842.89;;;0.02;37.73
57024;BME280;42916;54.346;18.562;2023-03-04T15:38:43;99839.58;;;-0.02;36.99
57024;BME280;42916;54.346;18.562;2023-03-04T15:41:17;99838.82;;;-0.07;36.92
57024;BME280;42916;54.346;18.562;2023-03-04T15:43:47;99838.60;;;-0.09;37.15
57024;BME280;42916;54.346;18.562;2023-03-04T15:46:14;99841.60;;;-0.13;36.77
57024;BME280;42916;54.346;18.562;2023-03-04T15:48:41;99840.14;;;-0.17;37.34
57024;BME280;42916;54.346;18.562;2023-03-04T15:51:17;99839.96;;;-0.20;37.74
57024;BME280;42916;54.346;18.562;2023-03-04T15:53:50;99843.94;;;-0.23;37.57
57024;BME280;42916;54.346;18.562;2023-03-04T15:56:20;99839.30;;;-0.27;37.25
57024;BME280;42916;54.346;18.562;2023-03-04T15:59:10;99838.42;;;-0.31;37.27
57024;BME280;42916;54.346;18.562;2023-03-04T16:01:37;99845.35;;;-0.35;37.38
57024;BME280;42916;54.346;18.562;2023-03-04T16:04:04;99841.66;;;-0.40;38.06
57024;BME280;42916;54.346;18.562;2023-03-04T16:06:31;99846.70;;;-0.43;37.73
57024;BME280;42916;54.346;18.562;2023-03-04T16:08:59;99848.09;;;-0.47;37.98
57024;BME280;42916;54.346;18.562;2023-03-04T16:11:28;99848.80;;;-0.51;37.84
57024;BME280;42916;54.346;18.562;2023-03-04T16:13:56;99848.94;;;-0.55;37.76
57024;BME280;42916;54.346;18.562;2023-03-04T16:16:25;99852.08;;;-0.59;37.70
57024;BME280;42916;54.346;18.562;2023-03-04T16:18:52;99856.10;;;-0.62;38.12
57024;BME280;42916;54.346;18.562;2023-03-04T16:21:20;99853.34;;;-0.66;38.07
57024;BME280;42916;54.346;18.562;2023-03-04T16:23:50;99861.45;;;-0.69;38.13
57024;BME280;42916;54.346;18.562;2023-03-04T16:26:19;99861.47;;;-0.74;38.44
57024;BME280;42916;54.346;18.562;2023-03-04T16:34:59;99868.55;;;-0.88;38.58
57024;BME280;42916;54.346;18.562;2023-03-04T16:38:00;99867.48;;;-0.93;38.90
57024;BME280;42916;54.346;18.562;2023-03-04T16:41:01;99870.73;;;-0.99;39.10
57024;BME280;42916;54.346;18.562;2023-03-04T16:44:04;99874.38;;;-1.04;39.31
57024;BME280;42916;54.346;18.562;2023-03-04T16:46:58;99875.40;;;-1.09;39.58
57024;BME280;42916;54.346;18.562;2023-03-04T16:49:45;99880.08;;;-1.14;39.89
57024;BME280;42916;54.346;18.562;2023-03-04T16:52:29;99882.94;;;-1.20;40.28
57024;BME280;42916;54.346;18.562;2023-03-04T16:55:02;99885.56;;;-1.26;40.20
57024;BME280;42916;54.346;18.562;2023-03-04T16:57:46;99883.88;;;-1.30;40.50
57024;BME280;42916;54.346;18.562;2023-03-04T17:00:30;99887.48;;;-1.34;40.62
57024;BME280;42916;54.346;18.562;2023-03-04T17:03:31;99888.64;;;-1.38;40.71
57024;BME280;42916;54.346;18.562;2023-03-04T17:06:30;99889.59;;;-1.41;41.01
57024;BME280;42916;54.346;18.562;2023-03-04T17:09:32;99894.98;;;-1.44;41.20
57024;BME280;42916;54.346;18.562;2023-03-04T17:12:50;99899.09;;;-1.47;41.39
57024;BME280;42916;54.346;18.562;2023-03-04T17:15:36;99898.78;;;-1.49;41.53
57024;BME280;42916;54.346;18.562;2023-03-04T17:22:16;99900.65;;;-1.59;42.17
57024;BME280;42916;54.346;18.562;2023-03-04T17:25:26;99904.10;;;-1.62;42.41
57024;BME280;42916;54.346;18.562;2023-03-04T17:31:30;99905.56;;;-1.67;42.64
57024;BME280;42916;54.346;18.562;2023-03-04T17:34:16;99908.86;;;-1.69;42.74
57024;BME280;42916;54.346;18.562;2023-03-04T17:37:28;99908.87;;;-1.72;42.93
57024;BME280;42916;54.346;18.562;2023-03-04T17:43:47;99910.36;;;-1.77;43.52
57024;BME280;42916;54.346;18.562;2023-03-04T17:47:17;99908.63;;;-1.82;43.89
57024;BME280;42916;54.346;18.562;2023-03-04T17:53:12;99913.80;;;-1.88;44.36
57024;BME280;42916;54.346;18.562;2023-03-04T17:55:57;99912.16;;;-1.91;44.79
57024;BME280;42916;54.346;18.562;2023-03-04T17:58:54;99907.27;;;-1.93;45.06
57024;BME280;42916;54.346;18.562;2023-03-04T18:01:40;99910.31;;;-1.93;45.26
57024;BME280;42916;54.346;18.562;2023-03-04T18:04:15;99908.36;;;-1.94;45.51
57024;BME280;42916;54.346;18.562;2023-03-04T18:06:51;99911.23;;;-1.96;45.68
57024;BME280;42916;54.346;18.562;2023-03-04T18:09:33;99910.27;;;-1.97;46.01
57024;BME280;42916;54.346;18.562;2023-03-04T18:12:06;99905.99;;;-1.97;46.17
57024;BME280;42916;54.346;18.562;2023-03-04T18:14:47;99908.46;;;-1.98;46.26
57024;BME280;42916;54.346;18.562;2023-03-04T18:17:38;99908.95;;;-1.99;46.58
57024;BME280;42916;54.346;18.562;2023-03-04T18:20:08;99907.70;;;-2.01;46.66
57024;BME280;42916;54.346;18.562;2023-03-04T18:22:41;99912.98;;;-2.01;47.14
57024;BME280;42916;54.346;18.562;2023-03-04T18:25:38;99910.86;;;-2.03;47.46
57024;BME280;42916;54.346;18.562;2023-03-04T18:28:23;99914.14;;;-2.04;47.52
57024;BME280;42916;54.346;18.562;2023-03-04T18:31:03;99911.45;;;-2.05;47.62
57024;BME280;42916;54.346;18.562;2023-03-04T18:37:30;99906.59;;;-2.07;48.26
57024;BME280;42916;54.346;18.562;2023-03-04T18:40:00;99903.77;;;-2.08;48.22
57024;BME280;42916;54.346;18.562;2023-03-04T18:42:42;99902.36;;;-2.08;48.60
57024;BME280;42916;54.346;18.562;2023-03-04T18:46:21;99900.37;;;-2.09;48.79
57024;BME280;42916;54.346;18.562;2023-03-04T18:51:33;99896.84;;;-2.09;48.71
57024;BME280;42916;54.346;18.562;2023-03-04T18:54:08;99896.36;;;-2.08;48.90
57024;BME280;42916;54.346;18.562;2023-03-04T18:56:59;99894.29;;;-2.07;48.95
57024;BME280;42916;54.346;18.562;2023-03-04T18:59:56;99892.76;;;-2.08;49.07
57024;BME280;42916;54.346;18.562;2023-03-04T19:02:48;99887.91;;;-2.08;48.96
57024;BME280;42916;54.346;18.562;2023-03-04T19:05:48;99886.17;;;-2.09;49.02